createdAt,value
2022-12-28T00:02:17.372Z,9.23
2022-12-28T00:04:49.401Z,9.75
2022-12-28T00:07:20.091Z,8.13
2022-12-28T00:09:47.988Z,8.60
2022-12-28T00:12:15.858Z,8.80
2022-12-28T00:14:46.239Z,7.80
2022-12-28T00:17:14.315Z,8.97
2022-12-28T00:19:42.200Z,8.13
2022-12-28T00:22:10.162Z,8.38
2022-12-28T00:24:38.068Z,8.30
2022-12-28T00:27:05.993Z,9.23
2022-12-28T00:29:33.956Z,9.30
2022-12-28T00:32:01.991Z,8.95
2022-12-28T00:34:29.963Z,9.45
2022-12-28T00:37:09.179Z,7.55
2022-12-28T00:39:41.291Z,7.25
2022-12-28T00:42:09.537Z,7.65
2022-12-28T00:44:38.505Z,7.32
2022-12-28T00:47:06.421Z,7.05
2022-12-28T00:49:34.385Z,7.10
2022-12-28T00:52:02.379Z,7.20
2022-12-28T00:54:30.413Z,6.97
2022-12-28T00:56:58.416Z,6.55
2022-12-28T00:59:26.266Z,7.00
2022-12-28T01:01:54.318Z,6.80
2022-12-28T01:04:22.762Z,6.60
2022-12-28T01:06:50.679Z,7.07
2022-12-28T01:09:18.599Z,6.35
2022-12-28T01:11:46.515Z,5.85
2022-12-28T01:14:16.056Z,6.63
2022-12-28T01:16:44.181Z,6.07
2022-12-28T01:19:17.291Z,6.82
2022-12-28T01:21:45.310Z,6.68
2022-12-28T01:24:13.224Z,6.47
2022-12-28T01:26:41.262Z,5.80
2022-12-28T01:29:09.329Z,5.93
2022-12-28T01:31:37.365Z,6.85
2022-12-28T01:34:12.593Z,6.65
2022-12-28T01:36:43.708Z,5.82
2022-12-28T01:39:12.208Z,5.85
2022-12-28T01:41:42.941Z,5.90
2022-12-28T01:44:13.571Z,5.90
2022-12-28T01:46:46.711Z,6.38
2022-12-28T01:49:20.875Z,6.10
2022-12-28T01:52:07.390Z,5.43
2022-12-28T01:54:43.719Z,5.65
2022-12-28T01:57:12.458Z,5.85
2022-12-28T01:59:44.816Z,6.32
2022-12-28T02:02:18.507Z,6.15
2022-12-28T02:04:50.558Z,5.95
2022-12-28T02:07:31.057Z,6.40
2022-12-28T02:10:42.475Z,6.32
2022-12-28T02:12:48.272Z,6.80
2022-12-28T02:15:22.782Z,6.10
2022-12-28T02:17:51.953Z,6.45
2022-12-28T02:20:20.521Z,6.45
2022-12-28T02:23:08.351Z,7.03
2022-12-28T02:25:48.473Z,6.60
2022-12-28T02:28:38.099Z,7.05
2022-12-28T02:31:45.906Z,8.00
2022-12-28T02:34:38.431Z,6.57
2022-12-28T02:37:28.444Z,5.82
2022-12-28T02:40:26.284Z,6.22
2022-12-28T02:42:55.988Z,6.90
2022-12-28T02:45:54.402Z,7.22
2022-12-28T02:48:41.468Z,6.45
2022-12-28T02:51:40.591Z,6.75
2022-12-28T02:54:45.945Z,7.05
2022-12-28T02:57:42.485Z,7.20
2022-12-28T03:00:16.868Z,6.50
2022-12-28T03:03:03.868Z,6.82
2022-12-28T03:06:17.494Z,7.97
2022-12-28T03:08:54.750Z,7.75
2022-12-28T03:11:31.758Z,8.10
2022-12-28T03:14:12.286Z,7.93
2022-12-28T03:17:02.878Z,8.50
2022-12-28T03:20:00.968Z,7.65
2022-12-28T03:22:50.504Z,7.65
2022-12-28T03:25:41.752Z,7.40
2022-12-28T03:28:32.822Z,7.85
2022-12-28T03:31:09.086Z,8.07
2022-12-28T03:33:47.700Z,8.07
2022-12-28T03:36:31.656Z,8.30
2022-12-28T03:39:21.696Z,8.13
2022-12-28T03:42:23.297Z,8.93
2022-12-28T03:44:57.700Z,8.63
2022-12-28T03:47:28.752Z,9.00
2022-12-28T03:49:56.912Z,8.93
2022-12-28T03:52:25.022Z,9.02
2022-12-28T03:54:53.315Z,9.40
2022-12-28T03:57:27.714Z,9.20
2022-12-28T04:00:00.308Z,9.38
2022-12-28T04:02:28.389Z,9.32
2022-12-28T04:04:56.354Z,9.90
2022-12-28T04:07:24.766Z,10.00
2022-12-28T04:09:52.697Z,9.40
2022-12-28T04:12:20.726Z,10.23
2022-12-28T04:15:07.783Z,10.25
2022-12-28T04:17:36.142Z,9.80
2022-12-28T04:20:04.903Z,10.30
2022-12-28T04:22:33.009Z,11.30
2022-12-28T04:25:00.912Z,11.50
2022-12-28T04:27:28.985Z,9.73
2022-12-28T04:30:02.797Z,10.43
2022-12-28T04:32:33.143Z,10.47
2022-12-28T04:35:02.348Z,10.95
2022-12-28T04:40:01.394Z,10.07
2022-12-28T04:42:29.392Z,10.80
2022-12-28T04:44:57.337Z,11.40
2022-12-28T04:47:25.319Z,10.25
2022-12-28T04:49:53.371Z,10.32
2022-12-28T04:52:23.386Z,10.70
2022-12-28T04:54:51.309Z,10.98
2022-12-28T04:57:19.251Z,10.38
2022-12-28T04:59:47.204Z,12.52
2022-12-28T05:02:15.209Z,12.10
2022-12-28T05:04:43.181Z,11.60
2022-12-28T05:07:11.241Z,12.27
2022-12-28T05:09:39.168Z,11.70
2022-12-28T05:12:07.241Z,11.80
2022-12-28T05:14:37.175Z,11.00
2022-12-28T05:17:06.855Z,12.27
2022-12-28T05:19:36.171Z,11.93
2022-12-28T05:22:04.481Z,11.35
2022-12-28T05:24:32.698Z,11.57
2022-12-28T05:27:00.988Z,11.13
2022-12-28T05:29:29.091Z,11.65
2022-12-28T05:31:57.094Z,12.02
2022-12-28T05:34:25.168Z,11.35
2022-12-28T05:36:53.121Z,11.80
2022-12-28T05:39:21.031Z,12.45
2022-12-28T05:41:49.096Z,10.82
2022-12-28T05:44:17.129Z,11.82
2022-12-28T05:46:45.085Z,10.82
2022-12-28T05:49:13.025Z,11.88
2022-12-28T05:51:40.901Z,11.77
2022-12-28T05:54:08.892Z,11.45
2022-12-28T05:56:37.037Z,10.80
2022-12-28T05:59:07.513Z,10.52
2022-12-28T06:01:38.549Z,11.37
2022-12-28T06:04:09.251Z,10.70
2022-12-28T06:06:37.449Z,11.07
2022-12-28T06:09:06.022Z,11.30
2022-12-28T06:11:34.078Z,10.63
2022-12-28T06:14:03.788Z,11.98
2022-12-28T06:16:35.348Z,11.00
2022-12-28T06:19:09.920Z,11.15
2022-12-28T06:21:40.465Z,10.55
2022-12-28T06:24:11.582Z,10.80
2022-12-28T06:26:41.927Z,10.20
2022-12-28T06:29:11.380Z,10.53
2022-12-28T06:31:42.457Z,35.22
2022-12-28T06:34:13.995Z,16.23
2022-12-28T06:36:47.426Z,20.90
2022-12-28T06:39:16.239Z,17.73
2022-12-28T06:41:44.557Z,11.23
2022-12-28T06:44:14.702Z,16.20
2022-12-28T06:46:43.259Z,11.35
2022-12-28T06:49:11.471Z,11.00
2022-12-28T06:51:42.568Z,11.25
2022-12-28T06:54:12.018Z,10.75
2022-12-28T06:56:40.391Z,10.75
2022-12-28T06:59:08.956Z,10.82
2022-12-28T07:01:42.535Z,11.00
2022-12-28T07:04:11.578Z,10.95
2022-12-28T07:06:45.203Z,11.57
2022-12-28T07:09:17.305Z,11.70
2022-12-28T07:11:46.237Z,11.30
2022-12-28T07:14:14.373Z,10.95
2022-12-28T07:19:08.560Z,11.23
2022-12-28T07:21:38.739Z,11.27
2022-12-28T07:24:08.169Z,11.02
2022-12-28T07:26:38.154Z,11.32
2022-12-28T07:29:07.642Z,11.32
2022-12-28T07:31:44.689Z,11.13
2022-12-28T07:34:14.569Z,10.57
2022-12-28T07:36:46.848Z,11.80
2022-12-28T07:39:18.694Z,12.60
2022-12-28T07:41:46.636Z,11.65
2022-12-28T07:44:14.905Z,11.07
2022-12-28T07:46:43.150Z,10.23
2022-12-28T07:49:11.251Z,18.80
2022-12-28T07:51:40.020Z,16.38
2022-12-28T07:54:08.511Z,10.90
2022-12-28T07:59:05.744Z,9.90
2022-12-28T08:04:05.786Z,8.98
2022-12-28T08:06:36.945Z,9.68
2022-12-28T08:09:06.518Z,9.88
2022-12-28T08:11:36.603Z,9.57
2022-12-28T08:14:05.506Z,9.68
2022-12-28T08:16:36.733Z,9.82
2022-12-28T08:19:04.930Z,10.35
2022-12-28T08:21:45.557Z,10.02
2022-12-28T08:24:19.059Z,9.20
2022-12-28T08:26:48.977Z,10.35
2022-12-28T08:29:20.502Z,10.95
2022-12-28T08:31:48.879Z,10.93
2022-12-28T08:34:28.061Z,10.43
2022-12-28T08:36:57.199Z,10.77
2022-12-28T08:39:25.313Z,11.43
2022-12-28T08:41:53.315Z,10.23
2022-12-28T08:44:21.356Z,9.07
2022-12-28T08:46:49.562Z,9.10
2022-12-28T08:49:17.689Z,9.27
2022-12-28T08:51:45.866Z,9.20
2022-12-28T08:54:15.103Z,9.82
2022-12-28T08:56:45.128Z,10.38
2022-12-28T08:59:18.595Z,9.45
2022-12-28T09:01:47.927Z,9.23
2022-12-28T09:04:22.645Z,9.38
2022-12-28T09:06:51.184Z,10.13
2022-12-28T09:09:23.256Z,10.25
2022-12-28T09:11:51.331Z,11.63
2022-12-28T09:14:23.832Z,11.85
2022-12-28T09:16:55.631Z,14.65
2022-12-28T09:19:24.351Z,12.07
2022-12-28T09:21:54.143Z,11.27
2022-12-28T09:24:25.376Z,11.27
2022-12-28T09:26:55.648Z,10.00
2022-12-28T09:29:23.740Z,10.50
2022-12-28T09:31:54.359Z,10.18
2022-12-28T09:34:35.689Z,9.10
2022-12-28T09:37:04.937Z,8.63
2022-12-28T09:39:33.057Z,7.45
2022-12-28T09:42:05.814Z,7.68
2022-12-28T09:45:12.945Z,8.07
2022-12-28T09:47:58.671Z,7.03
2022-12-28T09:50:36.585Z,7.43
2022-12-28T09:53:16.840Z,6.63
2022-12-28T09:55:55.342Z,7.22
2022-12-28T09:58:24.014Z,6.93
2022-12-28T10:00:58.194Z,8.13
2022-12-28T10:03:34.707Z,7.15
2022-12-28T10:06:04.345Z,7.35
2022-12-28T10:08:32.561Z,6.50
2022-12-28T10:11:03.004Z,6.13
2022-12-28T10:13:54.480Z,5.80
2022-12-28T10:16:24.486Z,5.93
2022-12-28T10:18:52.913Z,6.10
2022-12-28T10:21:30.101Z,6.05
2022-12-28T10:24:30.313Z,5.32
2022-12-28T10:26:49.689Z,5.90
2022-12-28T10:29:23.387Z,4.93
2022-12-28T10:32:06.440Z,5.10
2022-12-28T10:34:36.537Z,5.53
2022-12-28T10:37:16.872Z,5.25
2022-12-28T10:40:04.870Z,5.38
2022-12-28T10:42:45.143Z,4.78
2022-12-28T10:45:46.955Z,6.68
2022-12-28T10:48:19.662Z,5.43
2022-12-28T10:51:01.939Z,4.53
2022-12-28T10:53:52.492Z,5.50
2022-12-28T10:56:34.381Z,5.13
2022-12-28T10:59:14.495Z,4.47
2022-12-28T11:01:44.136Z,4.88
2022-12-28T11:04:22.038Z,4.40
2022-12-28T11:07:02.261Z,4.05
2022-12-28T11:09:32.452Z,4.13
2022-12-28T11:12:27.675Z,4.15
2022-12-28T11:14:57.379Z,4.18
2022-12-28T11:17:28.500Z,4.20
2022-12-28T11:20:15.517Z,4.13
2022-12-28T11:22:46.063Z,4.28
2022-12-28T11:25:19.823Z,3.47
2022-12-28T11:27:48.969Z,4.65
2022-12-28T11:30:19.064Z,3.88
2022-12-28T11:32:55.683Z,3.67
2022-12-28T11:35:36.256Z,3.67
2022-12-28T11:38:08.078Z,3.10
2022-12-28T11:40:45.425Z,3.42
2022-12-28T11:43:31.639Z,3.42
2022-12-28T11:46:01.713Z,3.20
2022-12-28T11:48:45.072Z,3.38
2022-12-28T11:51:21.395Z,3.38
2022-12-28T11:53:50.812Z,3.30
2022-12-28T11:56:21.196Z,3.40
2022-12-28T11:59:03.076Z,3.10
2022-12-28T12:01:31.142Z,3.00
2022-12-28T12:03:59.307Z,2.72
2022-12-28T12:06:46.126Z,3.05
2022-12-28T12:09:23.454Z,3.10
2022-12-28T12:11:58.643Z,2.92
2022-12-28T12:14:43.519Z,3.03
2022-12-28T12:17:42.829Z,2.70
2022-12-28T12:20:24.910Z,3.35
2022-12-28T12:22:59.424Z,3.22
2022-12-28T12:25:40.308Z,2.53
2022-12-28T12:28:31.693Z,2.88
2022-12-28T12:31:02.265Z,2.55
2022-12-28T12:33:41.560Z,3.33
2022-12-28T12:36:41.868Z,2.88
2022-12-28T12:39:26.694Z,2.70
2022-12-28T12:42:17.728Z,2.75
2022-12-28T12:45:16.406Z,2.90
2022-12-28T12:48:23.376Z,2.85
2022-12-28T12:51:27.804Z,2.90
2022-12-28T12:54:10.840Z,2.90
2022-12-28T12:56:56.443Z,2.85
2022-12-28T12:59:43.205Z,2.55
2022-12-28T13:02:42.327Z,2.50
2022-12-28T13:05:26.406Z,2.60
2022-12-28T13:07:57.697Z,2.67
2022-12-28T13:10:39.014Z,2.70
2022-12-28T13:13:07.292Z,2.67
2022-12-28T13:15:35.904Z,2.55
2022-12-28T13:18:44.101Z,2.50
2022-12-28T13:21:12.571Z,2.67
2022-12-28T13:23:46.071Z,2.38
2022-12-28T13:26:16.627Z,2.60
2022-12-28T13:28:59.541Z,2.43
2022-12-28T13:31:41.300Z,2.30
2022-12-28T13:34:26.852Z,2.50
2022-12-28T13:37:15.427Z,2.60
2022-12-28T13:39:43.557Z,2.30
2022-12-28T13:42:27.954Z,3.35
2022-12-28T13:45:00.377Z,3.30
2022-12-28T13:47:34.849Z,2.97
2022-12-28T13:50:16.763Z,3.33
2022-12-28T13:52:54.762Z,3.13
2022-12-28T13:55:40.230Z,2.67
2022-12-28T13:58:37.648Z,2.78
2022-12-28T14:01:11.002Z,2.58
2022-12-28T14:03:44.601Z,2.92
2022-12-28T14:06:21.281Z,2.38
2022-12-28T14:08:52.952Z,2.58
2022-12-28T14:11:21.836Z,2.97
2022-12-28T14:13:50.353Z,2.58
2022-12-28T14:16:19.411Z,3.20
2022-12-28T14:18:48.273Z,3.30
2022-12-28T14:21:16.488Z,3.20
2022-12-28T14:23:44.807Z,3.42
2022-12-28T14:26:21.769Z,3.17
2022-12-28T14:28:55.773Z,3.67
2022-12-28T14:31:33.383Z,3.70
2022-12-28T14:34:04.569Z,6.05
2022-12-28T14:36:44.352Z,4.72
2022-12-28T14:39:31.506Z,3.13
2022-12-28T14:42:00.858Z,3.75
2022-12-28T14:44:34.435Z,3.40
2022-12-28T14:47:02.502Z,3.50
2022-12-28T14:49:30.482Z,3.30
2022-12-28T14:52:18.994Z,2.60
2022-12-28T14:54:54.261Z,3.75
2022-12-28T14:57:31.156Z,3.40
2022-12-28T15:00:09.531Z,2.65
2022-12-28T15:02:41.054Z,2.60
2022-12-28T15:05:37.360Z,2.53
2022-12-28T15:08:05.821Z,2.20
2022-12-28T15:10:38.126Z,3.25
2022-12-28T15:13:06.225Z,2.47
2022-12-28T15:15:34.604Z,3.05
2022-12-28T15:18:02.610Z,3.70
2022-12-28T15:20:30.741Z,3.20
2022-12-28T15:22:58.846Z,3.15
2022-12-28T15:25:26.926Z,3.28
2022-12-28T15:27:55.342Z,2.70
2022-12-28T15:30:28.771Z,2.90
2022-12-28T15:32:57.662Z,3.38
2022-12-28T15:35:26.470Z,2.70
2022-12-28T15:37:54.509Z,3.00
2022-12-28T15:40:22.846Z,2.70
2022-12-28T15:42:51.837Z,2.58
2022-12-28T15:45:20.716Z,2.70
2022-12-28T15:47:48.965Z,2.60
2022-12-28T15:50:17.119Z,3.00
2022-12-28T15:52:48.049Z,2.47
2022-12-28T15:55:19.265Z,2.38
2022-12-28T15:57:53.796Z,2.63
2022-12-28T16:00:22.659Z,2.72
2022-12-28T16:02:50.927Z,2.92
2022-12-28T16:05:19.300Z,3.42
2022-12-28T16:07:50.583Z,2.95
2022-12-28T16:10:20.050Z,2.35
2022-12-28T16:12:48.138Z,2.67
2022-12-28T16:15:16.486Z,2.22
2022-12-28T16:17:53.297Z,2.42
2022-12-28T16:20:24.948Z,3.03
2022-12-28T16:22:54.838Z,4.68
2022-12-28T16:25:22.785Z,3.60
2022-12-28T16:27:51.020Z,3.67
2022-12-28T16:30:19.087Z,3.10
2022-12-28T16:32:49.170Z,2.67
2022-12-28T16:35:17.580Z,3.00
2022-12-28T16:37:45.465Z,3.30
2022-12-28T16:40:16.129Z,2.85
2022-12-28T16:42:46.838Z,2.83
2022-12-28T16:45:14.954Z,2.72
2022-12-28T16:47:45.113Z,3.60
2022-12-28T16:50:13.542Z,3.05
2022-12-28T16:52:41.664Z,3.13
2022-12-28T16:55:09.812Z,3.47
2022-12-28T16:57:37.725Z,2.83
2022-12-28T17:00:06.195Z,3.45
2022-12-28T17:02:34.343Z,3.20
2022-12-28T17:05:02.559Z,3.58
2022-12-28T17:07:30.600Z,3.40
2022-12-28T17:10:06.707Z,2.80
2022-12-28T17:12:35.155Z,2.83
2022-12-28T17:15:06.996Z,3.30
2022-12-28T17:17:35.872Z,2.58
2022-12-28T17:20:04.028Z,2.95
2022-12-28T17:22:32.159Z,2.80
2022-12-28T17:25:00.405Z,3.08
2022-12-28T17:27:28.867Z,2.80
2022-12-28T17:29:57.412Z,3.63
2022-12-28T17:32:25.437Z,3.35
2022-12-28T17:34:53.729Z,3.15
2022-12-28T17:37:21.696Z,3.80
2022-12-28T17:39:49.927Z,3.75
2022-12-28T17:42:17.935Z,3.30
2022-12-28T17:44:47.103Z,4.40
2022-12-28T17:47:15.199Z,4.45
2022-12-28T17:49:43.585Z,4.60
2022-12-28T17:52:12.545Z,4.57
2022-12-28T17:54:40.420Z,4.50
2022-12-28T17:57:08.392Z,4.07
2022-12-28T17:59:36.388Z,4.20
2022-12-28T18:02:06.175Z,5.63
2022-12-28T18:04:34.908Z,4.93
2022-12-28T18:07:02.821Z,4.60
2022-12-28T18:09:30.770Z,4.63
2022-12-28T18:11:58.753Z,4.82
2022-12-28T18:14:27.715Z,3.53
2022-12-28T18:16:56.389Z,3.50
2022-12-28T18:19:24.404Z,2.70
2022-12-28T18:21:52.391Z,3.30
2022-12-28T18:24:21.917Z,3.50
2022-12-28T18:26:49.878Z,3.20
2022-12-28T18:29:17.822Z,3.58
2022-12-28T18:31:45.989Z,2.67
2022-12-28T18:34:14.000Z,2.45
2022-12-28T18:36:41.988Z,2.55
2022-12-28T18:39:10.783Z,2.45
2022-12-28T18:41:38.814Z,2.78
2022-12-28T18:44:07.703Z,3.00
2022-12-28T18:46:36.346Z,7.10
2022-12-28T18:49:04.784Z,3.35
2022-12-28T18:51:34.859Z,3.35
2022-12-28T18:54:03.506Z,4.18
2022-12-28T18:56:34.105Z,3.53
2022-12-28T18:59:06.627Z,3.47
2022-12-28T19:04:32.185Z,3.38
2022-12-28T19:07:05.193Z,3.67
2022-12-28T19:09:36.468Z,2.90
2022-12-28T19:12:04.944Z,3.55
2022-12-28T19:14:41.438Z,4.32
2022-12-28T19:17:19.046Z,3.60
2022-12-28T19:19:55.453Z,4.40
2022-12-28T19:25:08.181Z,4.75
2022-12-28T19:27:36.894Z,4.50
2022-12-28T19:30:09.438Z,4.30
2022-12-28T19:32:37.978Z,3.70
2022-12-28T19:35:06.555Z,4.25
2022-12-28T19:37:35.689Z,4.20
2022-12-28T19:40:06.998Z,3.45
2022-12-28T19:42:41.101Z,3.42
2022-12-28T19:45:10.455Z,3.17
2022-12-28T19:47:44.564Z,3.50
2022-12-28T19:50:16.115Z,2.65
2022-12-28T19:55:15.995Z,2.97
2022-12-28T19:57:45.785Z,2.20
2022-12-28T20:00:16.244Z,2.63
2022-12-28T20:05:31.548Z,3.53
2022-12-28T20:08:00.135Z,3.45
2022-12-28T20:10:33.841Z,4.13
2022-12-28T20:13:02.449Z,3.65
2022-12-28T20:15:30.589Z,4.03
2022-12-28T20:17:58.769Z,3.63
2022-12-28T20:20:46.028Z,4.63
2022-12-28T20:23:21.498Z,3.70
2022-12-28T20:25:53.853Z,3.65
2022-12-28T20:28:23.124Z,3.10
2022-12-28T20:30:53.487Z,3.20
2022-12-28T20:33:24.870Z,3.50
2022-12-28T20:38:38.155Z,3.45
2022-12-28T20:41:34.927Z,3.70
2022-12-28T20:44:11.758Z,3.40
2022-12-28T20:46:41.324Z,3.60
2022-12-28T20:49:11.878Z,4.13
2022-12-28T20:51:40.506Z,3.97
2022-12-28T20:54:13.315Z,4.80
2022-12-28T20:56:55.092Z,3.58
2022-12-28T20:59:27.396Z,3.95
2022-12-28T21:01:59.241Z,4.05
2022-12-28T21:04:29.347Z,4.00
2022-12-28T21:06:59.347Z,4.20
2022-12-28T21:09:28.067Z,3.85
2022-12-28T21:11:57.556Z,4.15
2022-12-28T21:14:26.246Z,3.63
2022-12-28T21:16:54.863Z,3.88
2022-12-28T21:19:26.284Z,3.53
2022-12-28T21:24:22.853Z,4.22
2022-12-28T21:26:50.978Z,4.03
2022-12-28T21:29:25.968Z,4.22
2022-12-28T21:31:57.512Z,4.55
2022-12-28T21:34:39.177Z,4.15
2022-12-28T21:37:41.508Z,3.00
2022-12-28T21:40:21.145Z,2.95
2022-12-28T21:42:52.631Z,3.30
2022-12-28T21:51:36.360Z,3.80
2022-12-28T21:57:03.644Z,3.40
2022-12-28T21:59:33.832Z,3.88
2022-12-28T22:02:20.395Z,3.38
2022-12-28T22:05:07.082Z,3.22
2022-12-28T22:07:36.183Z,3.45
2022-12-28T22:10:22.558Z,3.60
2022-12-28T22:12:50.578Z,2.90
2022-12-28T22:15:39.457Z,2.40
2022-12-28T22:18:15.769Z,2.30
2022-12-28T22:20:58.343Z,2.42
2022-12-28T22:23:31.097Z,2.10
2022-12-28T22:26:02.252Z,2.10
2022-12-28T22:28:30.155Z,1.98
2022-12-28T22:31:00.055Z,1.95
2022-12-28T22:33:30.886Z,2.10
2022-12-28T22:35:58.870Z,2.20
2022-12-28T22:38:28.497Z,2.17
2022-12-28T22:41:00.301Z,2.35
2022-12-28T22:43:28.397Z,2.13
2022-12-28T22:46:10.700Z,2.00
2022-12-28T22:48:39.166Z,1.80
2022-12-28T22:51:13.612Z,1.90
2022-12-28T22:53:42.023Z,2.80
2022-12-28T22:56:20.780Z,1.75
2022-12-28T22:58:49.591Z,1.75
2022-12-28T23:01:19.991Z,1.90
2022-12-28T23:03:49.247Z,1.63
2022-12-28T23:06:22.433Z,2.00
2022-12-28T23:08:50.490Z,1.73
2022-12-28T23:11:37.979Z,1.60
2022-12-28T23:14:27.911Z,1.80
2022-12-28T23:16:56.823Z,2.10
2022-12-28T23:19:43.942Z,1.60
2022-12-28T23:22:34.988Z,2.08
2022-12-28T23:25:22.141Z,1.90
2022-12-28T23:27:52.054Z,1.98
2022-12-28T23:30:22.845Z,1.85
2022-12-28T23:32:54.187Z,1.50
2022-12-28T23:35:24.531Z,1.85
2022-12-28T23:37:53.216Z,1.60
2022-12-28T23:40:25.401Z,1.52
2022-12-28T23:42:55.376Z,1.70
2022-12-28T23:45:23.892Z,1.75
2022-12-28T23:47:54.661Z,1.52
2022-12-28T23:50:22.833Z,1.60
2022-12-28T23:52:50.796Z,1.60
2022-12-28T23:55:18.872Z,1.85
2022-12-28T23:57:46.766Z,1.45
